FranceFixed distance
Ultra Trail du Saint-Jacques by UTMB
11 Jun2022
Distance
123km
Finishers
283274 men9 women
Winning time
13:04:15h
Median pace
5.37km/h
Pace distribution
283 finishers · 4.06–9.41 km/h · mean 5.58
Every finisher ran the same 123 km course, so these paces are directly comparable.
Histogram of finisher pace. 283 finishers ranged from 4.06 to 9.41 kilometres per hour, with a mean of 5.58 and a median of 5.37. The busiest band is 5.0 to 5.5 kilometres per hour, with 92 finishers.
Results
Ranks 1–50 of 283
| Rank | Runner | Time | Pace | Cat. | Placing |
|---|---|---|---|---|---|
| 1 | Team Altra | 13:04:15h | 9.41 | M23 | 1st M · 1st M23 |
| 2 | Team Endurance Shop 13 | 13:04:15h | 9.41 | M35 | 1st M · 1st M35 |
| 3 | Team Savoie Sport | 14:04:13h | 8.74 | M35 | 3rd M · 2nd M35 |
| 4 | Team Altra | 14:15:19h | 8.63 | M23 | 4th M · 2nd M23 |
| 5 | *Ferney-Voltaire | 14:29:12h | 8.49 | M35 | 5th M · 3rd M35 |
| 6 | Team Garmin Adventure | 14:58:02h | 8.22 | M50 | 6th M · 1st M50 |
| 7 | *Chadrac | 15:27:21h | 7.96 | M23 | 7th M · 3rd M23 |
| 8 | Sobhi Sport la Courrou... | 15:41:10h | 7.84 | M45 | 8th M · 1st M45 |
| 9 | *Lyon | 15:51:06h | 7.76 | M23 | 9th M · 4th M23 |
| 10 | Villeneuve D'Ascq | 15:53:17h | 7.74 | M40 | 10th M · 1st M40 |
| 11 | Nicodis Team | 16:39:41h | 7.38 | M35 | 11th M · 4th M35 |
| 12 | Team WAA | 16:46:49h | 7.33 | M55 | 12th M · 1st M55 |
| 13 | Perols Footing - FDI G... | 16:51:48h | 7.29 | M45 | 13th M · 2nd M45 |
| 14 | *Vélizy-Villacoublay | 16:52:25h | 7.29 | M23 | 14th M · 5th M23 |
| 15 | Imptek-Explorer-Mounta... | 17:14:27h | 7.13 | M35 | 15th M · 5th M35 |
| 16 | les Foulées du Loriot | 17:16:59h | 7.12 | M35 | 16th M · 6th M35 |
| 17 | *Sillingy | 17:17:35h | 7.11 | M23 | 17th M · 6th M23 |
| 18 | Endurance Shop Rodez | 17:19:51h | 7.10 | M23 | 18th M · 7th M23 |
| 19 | Runners'LAB | 17:22:42h | 7.08 | M35 | 19th M · 7th M35 |
| 20 | *Paris | 17:35:28h | 6.99 | M40 | 20th M · 2nd M40 |
| 21 | BPM Running | 17:50:24h | 6.89 | M23 | 21st M · 8th M23 |
| 22 | *Besançon | 17:50:25h | 6.89 | M23 | 22nd M · 9th M23 |
| 23 | *Uzès | 17:53:36h | 6.87 | M40 | 23rd M · 3rd M40 |
| 24 | Team Pascalou | 18:13:29h | 6.75 | M35 | 24th M · 8th M35 |
| 25 | 18:22:58h | 6.69 | M23 | 25th M · 10th M23 | |
| 26 | Smac | 18:26:16h | 6.67 | M40 | 26th M · 4th M40 |
| 27 | C.E. Triatlo Picornell | 18:29:37h | 6.65 | M45 | 27th M · 3rd M45 |
| 28 | C.E. Triatló Picornell | 18:29:37h | 6.65 | M40 | 27th M · 5th M40 |
| 29 | *Saint-Galmier | 18:30:29h | 6.65 | M45 | 29th M · 4th M45 |
| 30 | US la Châtre | 18:33:33h | 6.63 | M23 | 30th M · 11th M23 |
| 31 | 18:35:29h | 6.62 | W35 | 1st F · 1st W35 | |
| 32 | *Montpon-Ménestérol | 18:40:23h | 6.59 | MU23 | 31st M · 1st MU23 |
| 33 | Evreux AC | 18:42:46h | 6.57 | M40 | 32nd M · 6th M40 |
| 34 | Déniv | 18:46:59h | 6.55 | M55 | 33rd M · 2nd M55 |
| 35 | Team Raidlight | 18:47:21h | 6.55 | M50 | 34th M · 2nd M50 |
| 36 | 18:58:01h | 6.49 | M23 | 35th M · 12th M23 | |
| 37 | Asptt Angers Triathlon | 18:58:48h | 6.48 | M23 | 36th M · 13th M23 |
| 38 | Eatt | 18:58:51h | 6.48 | M40 | 37th M · 7th M40 |
| 39 | *Sèvres | 19:03:26h | 6.45 | M23 | 38th M · 14th M23 |
| 40 | HFR | 19:10:19h | 6.42 | M40 | 39th M · 8th M40 |
| 41 | 19:11:36h | 6.41 | — | 40th M | |
| 42 | *Champigny-Sur-Marne | 19:15:25h | 6.39 | M23 | 41st M · 15th M23 |
| 43 | *Versailles | 19:15:25h | 6.39 | M23 | 41st M · 15th M23 |
| 44 | 19:16:12h | 6.38 | M45 | 43rd M · 5th M45 | |
| 45 | 19:18:26h | 6.37 | M23 | 44th M · 17th M23 | |
| 46 | 19:26:11h | 6.33 | M35 | 45th M · 9th M35 | |
| 47 | 19:31:47h | 6.30 | M45 | 46th M · 6th M45 | |
| 48 | Running Club Bourgoin ... | 19:33:48h | 6.29 | M40 | 47th M · 9th M40 |
| 49 | *La Pacaudière | 19:43:13h | 6.24 | M50 | 48th M · 3rd M50 |
| 50 | Team Montañitas | 19:46:05h | 6.22 | M23 | 49th M · 18th M23 |
- 1Team Altra1st M · 1st M23Time13:04:15hPace9.41Cat.M23
- 2Team Endurance Shop 131st M · 1st M35Time13:04:15hPace9.41Cat.M35
- 3Team Savoie Sport3rd M · 2nd M35Time14:04:13hPace8.74Cat.M35
- 4Team Altra4th M · 2nd M23Time14:15:19hPace8.63Cat.M23
- 5*Ferney-Voltaire5th M · 3rd M35Time14:29:12hPace8.49Cat.M35
- 6Team Garmin Adventure6th M · 1st M50Time14:58:02hPace8.22Cat.M50
- 7*Chadrac7th M · 3rd M23Time15:27:21hPace7.96Cat.M23
- 8Sobhi Sport la Courrou...8th M · 1st M45Time15:41:10hPace7.84Cat.M45
- 9*Lyon9th M · 4th M23Time15:51:06hPace7.76Cat.M23
- 10Villeneuve D'Ascq10th M · 1st M40Time15:53:17hPace7.74Cat.M40
- 11Nicodis Team11th M · 4th M35Time16:39:41hPace7.38Cat.M35
- 12Team WAA12th M · 1st M55Time16:46:49hPace7.33Cat.M55
- 13Perols Footing - FDI G...13th M · 2nd M45Time16:51:48hPace7.29Cat.M45
- 14*Vélizy-Villacoublay14th M · 5th M23Time16:52:25hPace7.29Cat.M23
- 15Imptek-Explorer-Mounta...15th M · 5th M35Time17:14:27hPace7.13Cat.M35
- 16les Foulées du Loriot16th M · 6th M35Time17:16:59hPace7.12Cat.M35
- 17*Sillingy17th M · 6th M23Time17:17:35hPace7.11Cat.M23
- 18Endurance Shop Rodez18th M · 7th M23Time17:19:51hPace7.10Cat.M23
- 19Runners'LAB19th M · 7th M35Time17:22:42hPace7.08Cat.M35
- 20*Paris20th M · 2nd M40Time17:35:28hPace6.99Cat.M40
- 21BPM Running21st M · 8th M23Time17:50:24hPace6.89Cat.M23
- 22*Besançon22nd M · 9th M23Time17:50:25hPace6.89Cat.M23
- 23*Uzès23rd M · 3rd M40Time17:53:36hPace6.87Cat.M40
- 24Team Pascalou24th M · 8th M35Time18:13:29hPace6.75Cat.M35
- 2525th M · 10th M23Time18:22:58hPace6.69Cat.M23
- 26Smac26th M · 4th M40Time18:26:16hPace6.67Cat.M40
- 27C.E. Triatlo Picornell27th M · 3rd M45Time18:29:37hPace6.65Cat.M45
- 28C.E. Triatló Picornell27th M · 5th M40Time18:29:37hPace6.65Cat.M40
- 29*Saint-Galmier29th M · 4th M45Time18:30:29hPace6.65Cat.M45
- 30US la Châtre30th M · 11th M23Time18:33:33hPace6.63Cat.M23
- 311st F · 1st W35Time18:35:29hPace6.62Cat.W35
- 32*Montpon-Ménestérol31st M · 1st MU23Time18:40:23hPace6.59Cat.MU23
- 33Evreux AC32nd M · 6th M40Time18:42:46hPace6.57Cat.M40
- 34Déniv33rd M · 2nd M55Time18:46:59hPace6.55Cat.M55
- 35Team Raidlight34th M · 2nd M50Time18:47:21hPace6.55Cat.M50
- 3635th M · 12th M23Time18:58:01hPace6.49Cat.M23
- 37Asptt Angers Triathlon36th M · 13th M23Time18:58:48hPace6.48Cat.M23
- 38Eatt37th M · 7th M40Time18:58:51hPace6.48Cat.M40
- 39*Sèvres38th M · 14th M23Time19:03:26hPace6.45Cat.M23
- 40HFR39th M · 8th M40Time19:10:19hPace6.42Cat.M40
- 4140th MTime19:11:36hPace6.41
- 42*Champigny-Sur-Marne41st M · 15th M23Time19:15:25hPace6.39Cat.M23
- 43*Versailles41st M · 15th M23Time19:15:25hPace6.39Cat.M23
- 4443rd M · 5th M45Time19:16:12hPace6.38Cat.M45
- 4544th M · 17th M23Time19:18:26hPace6.37Cat.M23
- 4645th M · 9th M35Time19:26:11hPace6.33Cat.M35
- 4746th M · 6th M45Time19:31:47hPace6.30Cat.M45
- 48Running Club Bourgoin ...47th M · 9th M40Time19:33:48hPace6.29Cat.M40
- 49*La Pacaudière48th M · 3rd M50Time19:43:13hPace6.24Cat.M50
- 50Team Montañitas49th M · 18th M23Time19:46:05hPace6.22Cat.M23
Showing ranks 1–50 of 283